sensor_id;sensor_type;location;lat;lon;timestamp;pressure;altitude;pressure_sealevel;temperature;humidity
15529;BME280;7866;52.280;9.500;2023-09-07T00:04:25;100970.13;;;18.44;77.43
15529;BME280;7866;52.280;9.500;2023-09-07T00:09:27;100963.69;;;18.52;77.20
15529;BME280;7866;52.280;9.500;2023-09-07T00:14:30;100976.16;;;18.39;77.23
15529;BME280;7866;52.280;9.500;2023-09-07T00:19:32;100966.13;;;18.33;77.26
15529;BME280;7866;52.280;9.500;2023-09-07T00:24:37;100975.31;;;18.32;77.42
15529;BME280;7866;52.280;9.500;2023-09-07T00:29:39;100979.69;;;18.33;77.26
15529;BME280;7866;52.280;9.500;2023-09-07T00:34:41;100976.72;;;18.21;77.26
15529;BME280;7866;52.280;9.500;2023-09-07T00:39:43;100969.81;;;18.12;77.38
15529;BME280;7866;52.280;9.500;2023-09-07T00:44:46;100975.81;;;18.01;77.95
15529;BME280;7866;52.280;9.500;2023-09-07T00:49:48;100971.66;;;18.05;77.79
15529;BME280;7866;52.280;9.500;2023-09-07T00:54:50;100973.97;;;18.08;77.37
15529;BME280;7866;52.280;9.500;2023-09-07T01:00:12;100971.09;;;18.16;77.10
15529;BME280;7866;52.280;9.500;2023-09-07T01:05:14;100965.00;;;18.08;77.09
15529;BME280;7866;52.280;9.500;2023-09-07T01:10:16;100966.81;;;17.94;77.69
15529;BME280;7866;52.280;9.500;2023-09-07T01:15:20;100965.16;;;17.93;77.82
15529;BME280;7866;52.280;9.500;2023-09-07T01:20:22;100959.75;;;17.93;78.00
15529;BME280;7866;52.280;9.500;2023-09-07T01:25:25;100954.50;;;17.85;78.16
15529;BME280;7866;52.280;9.500;2023-09-07T01:30:28;100950.91;;;17.78;78.14
15529;BME280;7866;52.280;9.500;2023-09-07T01:35:31;100950.28;;;17.76;78.47
15529;BME280;7866;52.280;9.500;2023-09-07T01:40:36;100948.84;;;17.80;78.19
15529;BME280;7866;52.280;9.500;2023-09-07T01:45:37;100942.25;;;17.61;78.98
15529;BME280;7866;52.280;9.500;2023-09-07T01:50:39;100942.09;;;17.69;78.79
15529;BME280;7866;52.280;9.500;2023-09-07T01:55:42;100945.63;;;17.69;78.64
15529;BME280;7866;52.280;9.500;2023-09-07T02:00:43;100949.19;;;17.70;78.40
15529;BME280;7866;52.280;9.500;2023-09-07T02:05:45;100950.56;;;17.59;78.64
15529;BME280;7866;52.280;9.500;2023-09-07T02:10:48;100945.75;;;17.55;79.03
15529;BME280;7866;52.280;9.500;2023-09-07T02:15:50;100943.25;;;17.53;79.24
15529;BME280;7866;52.280;9.500;2023-09-07T02:20:52;100947.00;;;17.52;79.11
15529;BME280;7866;52.280;9.500;2023-09-07T02:25:54;100941.56;;;17.45;79.07
15529;BME280;7866;52.280;9.500;2023-09-07T02:31:02;100948.59;;;17.40;79.33
15529;BME280;7866;52.280;9.500;2023-09-07T02:36:04;100947.72;;;17.33;79.46
15529;BME280;7866;52.280;9.500;2023-09-07T02:41:07;100950.81;;;17.30;79.82
15529;BME280;7866;52.280;9.500;2023-09-07T02:46:08;100946.84;;;17.26;79.95
15529;BME280;7866;52.280;9.500;2023-09-07T02:51:10;100948.91;;;17.23;79.98
15529;BME280;7866;52.280;9.500;2023-09-07T02:56:13;100947.59;;;17.13;80.09
15529;BME280;7866;52.280;9.500;2023-09-07T03:01:15;100950.47;;;17.11;80.13
15529;BME280;7866;52.280;9.500;2023-09-07T03:06:20;100949.19;;;17.07;80.46
15529;BME280;7866;52.280;9.500;2023-09-07T03:11:23;100956.44;;;17.00;80.30
15529;BME280;7866;52.280;9.500;2023-09-07T03:16:25;100951.56;;;16.89;80.82
15529;BME280;7866;52.280;9.500;2023-09-07T03:21:27;100945.13;;;16.90;80.69
15529;BME280;7866;52.280;9.500;2023-09-07T03:26:30;100951.56;;;16.89;80.89
15529;BME280;7866;52.280;9.500;2023-09-07T03:31:32;100951.13;;;16.85;80.71
15529;BME280;7866;52.280;9.500;2023-09-07T03:36:34;100934.88;;;16.85;80.65
15529;BME280;7866;52.280;9.500;2023-09-07T03:41:38;100944.03;;;16.84;80.65
15529;BME280;7866;52.280;9.500;2023-09-07T03:46:39;100943.59;;;16.81;80.72
15529;BME280;7866;52.280;9.500;2023-09-07T03:51:41;100957.72;;;16.76;80.91
15529;BME280;7866;52.280;9.500;2023-09-07T03:56:44;100960.59;;;16.74;81.11
15529;BME280;7866;52.280;9.500;2023-09-07T04:01:46;100963.16;;;16.61;81.40
15529;BME280;7866;52.280;9.500;2023-09-07T04:06:47;100966.22;;;16.58;81.31
15529;BME280;7866;52.280;9.500;2023-09-07T04:11:50;100962.00;;;16.49;81.39
15529;BME280;7866;52.280;9.500;2023-09-07T04:16:52;100961.31;;;16.47;81.89
15529;BME280;7866;52.280;9.500;2023-09-07T04:21:53;100969.84;;;16.44;82.01
15529;BME280;7866;52.280;9.500;2023-09-07T04:26:59;100965.28;;;16.44;81.59
15529;BME280;7866;52.280;9.500;2023-09-07T04:32:01;100969.19;;;16.42;82.02
15529;BME280;7866;52.280;9.500;2023-09-07T04:37:03;100976.47;;;16.41;81.83
15529;BME280;7866;52.280;9.500;2023-09-07T04:42:06;100971.44;;;16.38;81.84
15529;BME280;7866;52.280;9.500;2023-09-07T04:47:09;100980.03;;;16.27;82.19
15529;BME280;7866;52.280;9.500;2023-09-07T04:52:10;100988.44;;;16.32;82.26
15529;BME280;7866;52.280;9.500;2023-09-07T04:57:15;100983.66;;;16.34;81.82
15529;BME280;7866;52.280;9.500;2023-09-07T05:02:17;100967.44;;;16.34;82.27
15529;BME280;7866;52.280;9.500;2023-09-07T05:07:18;100972.50;;;16.22;82.16
15529;BME280;7866;52.280;9.500;2023-09-07T05:12:21;100960.13;;;16.28;82.34
15529;BME280;7866;52.280;9.500;2023-09-07T05:17:23;100972.25;;;16.39;82.24
15529;BME280;7866;52.280;9.500;2023-09-07T05:22:25;100977.50;;;16.40;81.88
15529;BME280;7866;52.280;9.500;2023-09-07T05:27:28;100981.03;;;16.41;82.06
15529;BME280;7866;52.280;9.500;2023-09-07T05:32:29;100972.97;;;16.47;82.00
15529;BME280;7866;52.280;9.500;2023-09-07T05:37:31;100973.88;;;16.55;81.87
15529;BME280;7866;52.280;9.500;2023-09-07T05:42:34;100971.84;;;16.57;82.23
15529;BME280;7866;52.280;9.500;2023-09-07T05:47:35;100980.91;;;16.70;82.16
15529;BME280;7866;52.280;9.500;2023-09-07T05:52:37;100989.63;;;16.87;81.46
15529;BME280;7866;52.280;9.500;2023-09-07T05:57:40;100990.13;;;16.97;81.47
15529;BME280;7866;52.280;9.500;2023-09-07T06:02:42;100991.94;;;17.12;81.23
15529;BME280;7866;52.280;9.500;2023-09-07T06:07:45;100993.91;;;17.24;80.72
15529;BME280;7866;52.280;9.500;2023-09-07T06:12:47;100989.84;;;17.42;80.40
15529;BME280;7866;52.280;9.500;2023-09-07T06:17:49;100995.88;;;17.72;79.82
15529;BME280;7866;52.280;9.500;2023-09-07T06:22:51;101003.41;;;18.11;78.45
15529;BME280;7866;52.280;9.500;2023-09-07T06:27:54;101001.88;;;18.63;76.73
15529;BME280;7866;52.280;9.500;2023-09-07T06:32:55;101003.19;;;18.81;76.28
15529;BME280;7866;52.280;9.500;2023-09-07T06:37:57;101003.41;;;19.12;76.37
15529;BME280;7866;52.280;9.500;2023-09-07T06:43:00;101001.25;;;19.61;75.59
15529;BME280;7866;52.280;9.500;2023-09-07T06:48:05;101011.66;;;19.90;75.12
15529;BME280;7866;52.280;9.500;2023-09-07T06:53:07;101014.44;;;20.29;74.50
15529;BME280;7866;52.280;9.500;2023-09-07T06:58:11;101014.78;;;20.46;73.77
15529;BME280;7866;52.280;9.500;2023-09-07T07:03:12;101004.75;;;20.78;73.58
15529;BME280;7866;52.280;9.500;2023-09-07T07:08:14;101003.59;;;20.99;73.80
15529;BME280;7866;52.280;9.500;2023-09-07T07:13:17;101003.84;;;21.40;73.00
15529;BME280;7866;52.280;9.500;2023-09-07T07:18:18;101012.16;;;21.71;71.84
15529;BME280;7866;52.280;9.500;2023-09-07T07:23:20;101016.31;;;21.73;71.20
15529;BME280;7866;52.280;9.500;2023-09-07T07:28:23;101017.53;;;21.77;71.32
15529;BME280;7866;52.280;9.500;2023-09-07T07:33:24;101025.56;;;21.72;71.01
15529;BME280;7866;52.280;9.500;2023-09-07T07:38:26;101026.38;;;22.09;70.71
15529;BME280;7866;52.280;9.500;2023-09-07T07:43:29;101025.97;;;22.31;70.41
15529;BME280;7866;52.280;9.500;2023-09-07T07:48:30;101034.53;;;22.34;70.70
15529;BME280;7866;52.280;9.500;2023-09-07T07:53:34;101030.81;;;22.59;69.44
15529;BME280;7866;52.280;9.500;2023-09-07T07:58:37;101032.03;;;22.63;70.28
15529;BME280;7866;52.280;9.500;2023-09-07T08:03:38;101027.31;;;22.70;69.15
15529;BME280;7866;52.280;9.500;2023-09-07T08:08:40;101027.47;;;22.57;69.32
15529;BME280;7866;52.280;9.500;2023-09-07T08:13:43;101016.50;;;22.75;69.64
15529;BME280;7866;52.280;9.500;2023-09-07T08:18:46;101019.78;;;22.66;69.35
15529;BME280;7866;52.280;9.500;2023-09-07T08:23:48;101021.13;;;22.45;69.24
15529;BME280;7866;52.280;9.500;2023-09-07T08:28:51;101027.22;;;22.47;69.27
15529;BME280;7866;52.280;9.500;2023-09-07T08:33:52;101026.31;;;22.65;68.57
15529;BME280;7866;52.280;9.500;2023-09-07T08:38:55;101025.78;;;22.86;68.56
15529;BME280;7866;52.280;9.500;2023-09-07T08:44:01;101029.38;;;22.86;68.19
15529;BME280;7866;52.280;9.500;2023-09-07T08:49:03;101031.69;;;23.13;68.09
15529;BME280;7866;52.280;9.500;2023-09-07T08:54:06;101034.22;;;23.26;66.84
15529;BME280;7866;52.280;9.500;2023-09-07T08:59:10;101028.41;;;23.58;66.45
15529;BME280;7866;52.280;9.500;2023-09-07T09:04:11;101035.19;;;23.91;65.50
15529;BME280;7866;52.280;9.500;2023-09-07T09:09:21;101030.03;;;24.06;64.54
15529;BME280;7866;52.280;9.500;2023-09-07T09:14:25;101039.50;;;24.39;64.49
15529;BME280;7866;52.280;9.500;2023-09-07T09:19:33;101036.53;;;24.57;63.70
15529;BME280;7866;52.280;9.500;2023-09-07T09:24:35;101032.22;;;24.61;63.39
15529;BME280;7866;52.280;9.500;2023-09-07T09:29:38;101036.63;;;25.07;63.15
15529;BME280;7866;52.280;9.500;2023-09-07T09:34:39;101023.19;;;25.40;62.03
15529;BME280;7866;52.280;9.500;2023-09-07T09:39:41;101025.03;;;25.17;62.37
15529;BME280;7866;52.280;9.500;2023-09-07T09:44:45;101025.88;;;25.35;61.76
15529;BME280;7866;52.280;9.500;2023-09-07T09:49:51;101013.53;;;25.37;61.60
15529;BME280;7866;52.280;9.500;2023-09-07T09:54:54;101021.34;;;25.62;61.49
15529;BME280;7866;52.280;9.500;2023-09-07T09:59:58;101011.69;;;25.60;60.96
15529;BME280;7866;52.280;9.500;2023-09-07T10:05:04;101006.16;;;26.15;60.41
15529;BME280;7866;52.280;9.500;2023-09-07T10:10:10;101007.66;;;26.28;59.90
15529;BME280;7866;52.280;9.500;2023-09-07T10:15:22;101003.81;;;26.29;60.05
15529;BME280;7866;52.280;9.500;2023-09-07T10:20:24;100998.50;;;26.66;59.61
15529;BME280;7866;52.280;9.500;2023-09-07T10:25:30;100999.19;;;26.84;58.06
15529;BME280;7866;52.280;9.500;2023-09-07T10:30:33;100992.81;;;26.78;58.80
15529;BME280;7866;52.280;9.500;2023-09-07T10:35:35;100982.31;;;27.02;58.17
15529;BME280;7866;52.280;9.500;2023-09-07T10:40:38;100983.50;;;27.11;57.77
15529;BME280;7866;52.280;9.500;2023-09-07T10:45:44;100983.19;;;27.45;55.69
15529;BME280;7866;52.280;9.500;2023-09-07T10:50:47;100975.91;;;27.29;55.87
15529;BME280;7866;52.280;9.500;2023-09-07T10:55:51;100973.88;;;27.51;55.70
15529;BME280;7866;52.280;9.500;2023-09-07T11:00:54;100970.00;;;27.52;54.27
15529;BME280;7866;52.280;9.500;2023-09-07T11:05:58;100961.03;;;27.72;54.28
15529;BME280;7866;52.280;9.500;2023-09-07T11:11:00;100965.09;;;27.59;53.01
15529;BME280;7866;52.280;9.500;2023-09-07T11:16:07;100953.41;;;27.84;52.25
15529;BME280;7866;52.280;9.500;2023-09-07T11:21:10;100955.84;;;27.75;51.56
15529;BME280;7866;52.280;9.500;2023-09-07T11:26:11;100942.97;;;27.96;52.56
15529;BME280;7866;52.280;9.500;2023-09-07T11:31:19;100945.50;;;28.03;51.77
15529;BME280;7866;52.280;9.500;2023-09-07T11:36:21;100946.06;;;28.05;51.84
15529;BME280;7866;52.280;9.500;2023-09-07T11:41:24;100937.22;;;27.98;51.35
15529;BME280;7866;52.280;9.500;2023-09-07T11:46:27;100933.13;;;28.11;51.70
15529;BME280;7866;52.280;9.500;2023-09-07T11:51:29;100934.28;;;28.25;51.24
15529;BME280;7866;52.280;9.500;2023-09-07T11:56:30;100929.31;;;28.27;51.25
15529;BME280;7866;52.280;9.500;2023-09-07T12:01:33;100930.97;;;28.33;51.12
15529;BME280;7866;52.280;9.500;2023-09-07T12:06:35;100924.63;;;28.28;51.30
15529;BME280;7866;52.280;9.500;2023-09-07T12:11:37;100910.06;;;28.42;50.86
15529;BME280;7866;52.280;9.500;2023-09-07T12:16:40;100922.16;;;28.36;49.19
15529;BME280;7866;52.280;9.500;2023-09-07T12:21:42;100921.09;;;28.47;49.43
15529;BME280;7866;52.280;9.500;2023-09-07T12:26:43;100910.91;;;28.53;48.20
15529;BME280;7866;52.280;9.500;2023-09-07T12:31:46;100906.75;;;28.56;49.58
15529;BME280;7866;52.280;9.500;2023-09-07T12:36:48;100905.94;;;28.76;49.66
15529;BME280;7866;52.280;9.500;2023-09-07T12:41:50;100904.56;;;28.73;48.64
15529;BME280;7866;52.280;9.500;2023-09-07T12:46:53;100904.28;;;28.69;48.01
15529;BME280;7866;52.280;9.500;2023-09-07T12:51:55;100892.41;;;28.79;46.97
15529;BME280;7866;52.280;9.500;2023-09-07T12:56:56;100883.56;;;28.92;46.79
15529;BME280;7866;52.280;9.500;2023-09-07T13:01:59;100876.97;;;28.83;45.50
15529;BME280;7866;52.280;9.500;2023-09-07T13:07:01;100877.28;;;28.97;47.21
15529;BME280;7866;52.280;9.500;2023-09-07T13:12:03;100875.00;;;29.19;46.92
15529;BME280;7866;52.280;9.500;2023-09-07T13:17:12;100869.78;;;29.18;45.93
15529;BME280;7866;52.280;9.500;2023-09-07T13:22:13;100864.50;;;29.16;46.17
15529;BME280;7866;52.280;9.500;2023-09-07T13:27:15;100855.47;;;29.01;44.94
15529;BME280;7866;52.280;9.500;2023-09-07T13:32:18;100844.34;;;29.31;44.72
15529;BME280;7866;52.280;9.500;2023-09-07T13:37:20;100848.72;;;29.37;44.55
15529;BME280;7866;52.280;9.500;2023-09-07T13:42:22;100848.09;;;29.61;44.65
15529;BME280;7866;52.280;9.500;2023-09-07T13:47:24;100847.78;;;29.73;44.87
15529;BME280;7866;52.280;9.500;2023-09-07T13:52:26;100847.44;;;29.84;44.76
15529;BME280;7866;52.280;9.500;2023-09-07T13:57:28;100841.25;;;29.98;45.13
15529;BME280;7866;52.280;9.500;2023-09-07T14:02:31;100845.16;;;29.91;44.20
15529;BME280;7866;52.280;9.500;2023-09-07T14:07:32;100839.41;;;29.83;44.57
15529;BME280;7866;52.280;9.500;2023-09-07T14:12:34;100847.66;;;29.93;44.64
15529;BME280;7866;52.280;9.500;2023-09-07T14:17:37;100836.25;;;30.05;43.86
15529;BME280;7866;52.280;9.500;2023-09-07T14:22:39;100831.13;;;29.83;44.03
15529;BME280;7866;52.280;9.500;2023-09-07T14:27:40;100821.50;;;30.14;44.37
15529;BME280;7866;52.280;9.500;2023-09-07T14:32:43;100819.38;;;30.06;44.45
15529;BME280;7866;52.280;9.500;2023-09-07T14:37:47;100826.38;;;30.33;44.33
15529;BME280;7866;52.280;9.500;2023-09-07T14:42:48;100824.94;;;29.96;43.71
15529;BME280;7866;52.280;9.500;2023-09-07T14:47:51;100816.56;;;30.16;44.21
15529;BME280;7866;52.280;9.500;2023-09-07T14:52:53;100821.06;;;30.02;43.67
15529;BME280;7866;52.280;9.500;2023-09-07T14:57:55;100811.75;;;29.93;44.36
15529;BME280;7866;52.280;9.500;2023-09-07T15:02:58;100816.25;;;29.79;44.21
15529;BME280;7866;52.280;9.500;2023-09-07T15:07:59;100811.59;;;29.74;44.39
15529;BME280;7866;52.280;9.500;2023-09-07T15:13:03;100807.44;;;29.72;44.49
15529;BME280;7866;52.280;9.500;2023-09-07T15:18:07;100802.09;;;29.41;44.29
15529;BME280;7866;52.280;9.500;2023-09-07T15:23:09;100804.84;;;29.36;44.73
15529;BME280;7866;52.280;9.500;2023-09-07T15:28:10;100801.78;;;29.42;44.99
15529;BME280;7866;52.280;9.500;2023-09-07T15:33:15;100794.63;;;29.41;44.91
15529;BME280;7866;52.280;9.500;2023-09-07T15:38:16;100794.44;;;29.23;44.85
15529;BME280;7866;52.280;9.500;2023-09-07T15:43:19;100795.25;;;29.23;44.59
15529;BME280;7866;52.280;9.500;2023-09-07T15:48:22;100794.22;;;29.09;44.53
15529;BME280;7866;52.280;9.500;2023-09-07T15:53:24;100792.00;;;28.95;45.44
15529;BME280;7866;52.280;9.500;2023-09-07T15:58:26;100789.88;;;28.67;45.38
15529;BME280;7866;52.280;9.500;2023-09-07T16:03:29;100795.16;;;28.33;46.50
15529;BME280;7866;52.280;9.500;2023-09-07T16:08:31;100790.47;;;28.03;47.35
15529;BME280;7866;52.280;9.500;2023-09-07T16:13:33;100787.16;;;27.95;47.18
15529;BME280;7866;52.280;9.500;2023-09-07T16:18:37;100783.13;;;27.30;51.06
15529;BME280;7866;52.280;9.500;2023-09-07T16:23:38;100770.91;;;26.58;53.76
15529;BME280;7866;52.280;9.500;2023-09-07T16:28:40;100782.13;;;26.19;55.63
15529;BME280;7866;52.280;9.500;2023-09-07T16:33:43;100785.19;;;25.91;55.56
15529;BME280;7866;52.280;9.500;2023-09-07T16:38:45;100780.34;;;26.03;54.79
15529;BME280;7866;52.280;9.500;2023-09-07T16:43:47;100779.28;;;26.09;55.13
15529;BME280;7866;52.280;9.500;2023-09-07T16:48:50;100772.63;;;25.73;55.72
15529;BME280;7866;52.280;9.500;2023-09-07T16:53:51;100777.03;;;25.74;55.68
15529;BME280;7866;52.280;9.500;2023-09-07T16:58:54;100773.09;;;25.38;57.45
15529;BME280;7866;52.280;9.500;2023-09-07T17:03:57;100775.38;;;25.02;58.43
15529;BME280;7866;52.280;9.500;2023-09-07T17:08:58;100770.44;;;24.82;59.70
15529;BME280;7866;52.280;9.500;2023-09-07T17:14:01;100767.72;;;24.65;59.78
15529;BME280;7866;52.280;9.500;2023-09-07T17:19:04;100765.28;;;24.47;60.71
15529;BME280;7866;52.280;9.500;2023-09-07T17:24:07;100760.19;;;24.22;60.91
15529;BME280;7866;52.280;9.500;2023-09-07T17:29:09;100760.03;;;24.12;61.64
15529;BME280;7866;52.280;9.500;2023-09-07T17:34:12;100758.84;;;23.91;62.25
15529;BME280;7866;52.280;9.500;2023-09-07T17:39:14;100753.13;;;23.75;62.57
15529;BME280;7866;52.280;9.500;2023-09-07T17:44:15;100765.53;;;23.66;62.65
15529;BME280;7866;52.280;9.500;2023-09-07T17:49:18;100773.47;;;23.39;63.40
15529;BME280;7866;52.280;9.500;2023-09-07T17:54:20;100767.22;;;23.27;63.82
15529;BME280;7866;52.280;9.500;2023-09-07T17:59:22;100768.31;;;23.14;64.39
15529;BME280;7866;52.280;9.500;2023-09-07T18:04:25;100777.13;;;23.04;63.95
15529;BME280;7866;52.280;9.500;2023-09-07T18:09:26;100784.75;;;22.91;64.95
15529;BME280;7866;52.280;9.500;2023-09-07T18:14:28;100780.00;;;22.74;65.85
15529;BME280;7866;52.280;9.500;2023-09-07T18:19:31;100787.22;;;22.57;66.39
15529;BME280;7866;52.280;9.500;2023-09-07T18:24:33;100789.03;;;22.51;66.10
15529;BME280;7866;52.280;9.500;2023-09-07T18:29:35;100789.59;;;22.42;65.80
15529;BME280;7866;52.280;9.500;2023-09-07T18:34:38;100791.13;;;22.26;66.52
15529;BME280;7866;52.280;9.500;2023-09-07T18:39:40;100787.44;;;22.20;66.96
15529;BME280;7866;52.280;9.500;2023-09-07T18:44:41;100784.81;;;22.13;66.86
15529;BME280;7866;52.280;9.500;2023-09-07T18:49:45;100789.28;;;22.08;67.28
15529;BME280;7866;52.280;9.500;2023-09-07T18:54:47;100786.25;;;21.86;68.18
15529;BME280;7866;52.280;9.500;2023-09-07T18:59:49;100789.22;;;21.84;68.44
15529;BME280;7866;52.280;9.500;2023-09-07T19:04:54;100794.72;;;21.66;68.82
15529;BME280;7866;52.280;9.500;2023-09-07T19:09:55;100796.72;;;21.59;69.19
15529;BME280;7866;52.280;9.500;2023-09-07T19:14:57;100792.19;;;21.53;69.00
15529;BME280;7866;52.280;9.500;2023-09-07T19:20:00;100782.69;;;21.44;68.33
15529;BME280;7866;52.280;9.500;2023-09-07T19:25:02;100782.38;;;21.33;68.35
15529;BME280;7866;52.280;9.500;2023-09-07T19:30:06;100785.38;;;21.25;68.00
15529;BME280;7866;52.280;9.500;2023-09-07T19:35:09;100795.75;;;21.16;68.85
15529;BME280;7866;52.280;9.500;2023-09-07T19:40:11;100787.66;;;21.10;68.95
15529;BME280;7866;52.280;9.500;2023-09-07T19:45:13;100799.19;;;21.12;69.01
15529;BME280;7866;52.280;9.500;2023-09-07T19:50:16;100795.09;;;21.03;69.11
15529;BME280;7866;52.280;9.500;2023-09-07T19:55:19;100797.88;;;20.96;69.18
15529;BME280;7866;52.280;9.500;2023-09-07T20:00:21;100790.69;;;20.83;69.34
15529;BME280;7866;52.280;9.500;2023-09-07T20:05:24;100796.66;;;20.74;70.29
15529;BME280;7866;52.280;9.500;2023-09-07T20:10:26;100802.09;;;20.74;69.90
15529;BME280;7866;52.280;9.500;2023-09-07T20:15:27;100808.44;;;20.67;70.37
15529;BME280;7866;52.280;9.500;2023-09-07T20:20:31;100808.66;;;20.66;70.47
15529;BME280;7866;52.280;9.500;2023-09-07T20:25:32;100810.44;;;20.54;70.76
15529;BME280;7866;52.280;9.500;2023-09-07T20:30:34;100806.38;;;20.38;71.56
15529;BME280;7866;52.280;9.500;2023-09-07T20:35:37;100812.19;;;20.41;71.50
15529;BME280;7866;52.280;9.500;2023-09-07T20:40:39;100803.88;;;20.36;70.82
15529;BME280;7866;52.280;9.500;2023-09-07T20:45:41;100808.41;;;20.17;71.79
15529;BME280;7866;52.280;9.500;2023-09-07T20:50:44;100803.13;;;20.23;71.72
15529;BME280;7866;52.280;9.500;2023-09-07T20:55:47;100805.66;;;20.24;71.65
15529;BME280;7866;52.280;9.500;2023-09-07T21:00:49;100799.16;;;20.25;71.72
15529;BME280;7866;52.280;9.500;2023-09-07T21:05:52;100798.47;;;20.05;71.99
15529;BME280;7866;52.280;9.500;2023-09-07T21:10:54;100794.09;;;20.04;71.79
15529;BME280;7866;52.280;9.500;2023-09-07T21:15:56;100793.66;;;20.07;71.91
15529;BME280;7866;52.280;9.500;2023-09-07T21:20:59;100798.06;;;20.01;72.14
15529;BME280;7866;52.280;9.500;2023-09-07T21:26:01;100803.28;;;20.03;72.32
15529;BME280;7866;52.280;9.500;2023-09-07T21:31:02;100801.06;;;19.93;72.44
15529;BME280;7866;52.280;9.500;2023-09-07T21:36:07;100798.34;;;19.93;72.67
15529;BME280;7866;52.280;9.500;2023-09-07T21:41:09;100799.09;;;19.75;73.43
15529;BME280;7866;52.280;9.500;2023-09-07T21:46:11;100784.78;;;19.48;74.56
15529;BME280;7866;52.280;9.500;2023-09-07T21:51:14;100790.97;;;19.68;73.82
15529;BME280;7866;52.280;9.500;2023-09-07T21:56:16;100791.13;;;19.80;73.06
15529;BME280;7866;52.280;9.500;2023-09-07T22:01:18;100794.69;;;19.74;73.27
15529;BME280;7866;52.280;9.500;2023-09-07T22:06:21;100780.13;;;19.62;73.60
15529;BME280;7866;52.280;9.500;2023-09-07T22:11:23;100784.72;;;19.55;74.22
15529;BME280;7866;52.280;9.500;2023-09-07T22:16:24;100784.38;;;19.51;74.49
15529;BME280;7866;52.280;9.500;2023-09-07T22:21:28;100782.34;;;19.33;74.61
15529;BME280;7866;52.280;9.500;2023-09-07T22:26:29;100778.38;;;19.36;74.88
15529;BME280;7866;52.280;9.500;2023-09-07T22:31:31;100777.56;;;19.29;74.79
15529;BME280;7866;52.280;9.500;2023-09-07T22:36:34;100769.03;;;19.18;74.94
15529;BME280;7866;52.280;9.500;2023-09-07T22:41:36;100772.00;;;19.10;75.30
15529;BME280;7866;52.280;9.500;2023-09-07T22:46:37;100770.56;;;19.01;75.42
15529;BME280;7866;52.280;9.500;2023-09-07T22:51:41;100764.97;;;18.96;75.42
15529;BME280;7866;52.280;9.500;2023-09-07T22:56:42;100759.13;;;18.92;75.64
15529;BME280;7866;52.280;9.500;2023-09-07T23:01:44;100747.44;;;18.92;75.68
15529;BME280;7866;52.280;9.500;2023-09-07T23:06:47;100748.44;;;18.98;75.42
15529;BME280;7866;52.280;9.500;2023-09-07T23:11:49;100747.03;;;18.88;75.06
15529;BME280;7866;52.280;9.500;2023-09-07T23:16:51;100742.84;;;18.92;74.96
15529;BME280;7866;52.280;9.500;2023-09-07T23:21:54;100744.91;;;18.90;75.20
15529;BME280;7866;52.280;9.500;2023-09-07T23:26:57;100748.69;;;18.83;75.33
15529;BME280;7866;52.280;9.500;2023-09-07T23:31:59;100756.88;;;18.76;75.81
15529;BME280;7866;52.280;9.500;2023-09-07T23:37:02;100758.09;;;18.67;75.90
15529;BME280;7866;52.280;9.500;2023-09-07T23:42:04;100749.16;;;18.60;76.31
15529;BME280;7866;52.280;9.500;2023-09-07T23:47:05;100753.34;;;18.49;76.69
15529;BME280;7866;52.280;9.500;2023-09-07T23:52:08;100751.25;;;18.44;76.67
15529;BME280;7866;52.280;9.500;2023-09-07T23:57:10;100753.16;;;18.37;77.08
